Time;durP1;ratioP1;P1;durP2;ratioP2;P2;SDS_P1;SDS_P2;PMS_P1;PMS_P2;Temp;Humidity;BMP_temperature;BMP_pressure;BME280_temperature;BME280_humidity;BME280_pressure;Samples;Min_cycle;Max_cycle;Signal;HPM_P1;HPM_P2
2021/12/01 00:01:58;;;;;;;12.00;8.10;;;2.70;99.90;;;;;;5051223;28;20448;-70
2021/12/01 00:04:25;;;;;;;12.40;7.83;;;2.70;99.90;;;;;;5051569;28;20485;-70
2021/12/01 00:06:52;;;;;;;13.27;8.00;;;2.70;99.90;;;;;;5052051;28;20452;-70
2021/12/01 00:09:19;;;;;;;11.87;7.57;;;2.80;99.90;;;;;;5051685;28;20458;-70
2021/12/01 00:11:46;;;;;;;14.53;7.83;;;2.70;99.90;;;;;;5050926;28;20488;-70
2021/12/01 00:14:13;;;;;;;13.40;7.80;;;2.30;99.90;;;;;;5050579;28;20514;-70
2021/12/01 00:16:42;;;;;;;16.07;9.43;;;2.30;99.90;;;;;;5051167;28;20495;-70
2021/12/01 00:19:09;;;;;;;16.07;9.30;;;2.30;99.90;;;;;;5050984;28;21005;-70
2021/12/01 00:21:36;;;;;;;12.60;9.00;;;2.00;99.90;;;;;;5051320;28;20452;-70
2021/12/01 00:24:03;;;;;;;13.70;8.97;;;2.00;99.90;;;;;;5050945;28;20522;-70
2021/12/01 00:26:30;;;;;;;12.73;9.00;;;2.00;99.90;;;;;;5051149;28;20457;-70
2021/12/01 00:28:58;;;;;;;15.33;9.20;;;2.10;99.90;;;;;;5051143;28;20463;-71
2021/12/01 00:31:25;;;;;;;12.07;9.23;;;2.10;99.90;;;;;;5051022;28;20447;-70
2021/12/01 00:33:53;;;;;;;15.10;8.87;;;2.10;99.90;;;;;;5051122;28;20449;-69
2021/12/01 00:36:20;;;;;;;13.40;7.90;;;1.90;99.90;;;;;;5050195;28;20487;-70
2021/12/01 00:38:48;;;;;;;15.77;7.60;;;2.00;99.90;;;;;;5050885;28;20452;-70
2021/12/01 00:41:15;;;;;;;13.30;8.93;;;1.90;99.90;;;;;;5051154;28;20446;-70
2021/12/01 00:43:42;;;;;;;22.03;8.37;;;1.90;99.90;;;;;;5051044;28;20460;-70
2021/12/01 00:46:14;;;;;;;13.60;8.97;;;1.70;99.90;;;;;;5050881;28;20478;-70
2021/12/01 00:48:41;;;;;;;14.30;8.70;;;1.60;99.90;;;;;;5049866;28;20471;-70
2021/12/01 00:51:10;;;;;;;11.00;7.53;;;1.70;99.90;;;;;;5049916;28;20462;-70
2021/12/01 00:53:37;;;;;;;11.57;8.03;;;1.80;99.90;;;;;;5049845;28;20461;-70
2021/12/01 00:56:06;;;;;;;9.50;6.90;;;1.50;99.90;;;;;;5050088;28;20500;-70
2021/12/01 00:58:33;;;;;;;10.50;7.07;;;1.60;99.90;;;;;;5050740;28;20458;-70
2021/12/01 01:01:01;;;;;;;12.73;8.60;;;1.60;99.90;;;;;;5050244;28;20490;-70
2021/12/01 01:03:31;;;;;;;10.53;6.97;;;1.60;99.90;;;;;;5050737;28;20459;-70
2021/12/01 01:05:58;;;;;;;11.87;7.33;;;1.60;99.90;;;;;;5050640;28;20481;-70
2021/12/01 01:08:26;;;;;;;12.87;7.60;;;1.70;99.90;;;;;;5050664;28;20454;-70
2021/12/01 01:16:22;;;;;;;11.70;6.70;;;1.50;99.90;;;;;;5049160;28;20563;-70
2021/12/01 01:16:43;;;;;;;14.27;6.20;;;1.50;99.90;;;;;;5050472;28;20527;-69
2021/12/01 01:19:11;;;;;;;8.97;5.93;;;1.60;99.90;;;;;;5050541;28;21229;-69
2021/12/01 01:21:43;;;;;;;10.70;7.17;;;1.70;99.90;;;;;;5050452;28;20454;-68
2021/12/01 01:24:12;;;;;;;13.77;6.70;;;1.70;99.90;;;;;;5050188;28;20488;-69
2021/12/01 01:26:40;;;;;;;10.40;6.67;;;1.70;99.90;;;;;;5049529;28;20507;-69
2021/12/01 01:29:07;;;;;;;12.43;6.20;;;1.60;99.90;;;;;;5050001;28;20480;-69
2021/12/01 01:31:36;;;;;;;10.87;6.47;;;1.80;99.90;;;;;;5050888;28;20855;-69
2021/12/01 01:34:04;;;;;;;10.37;6.30;;;1.70;99.90;;;;;;5050688;28;20466;-70
2021/12/01 01:36:31;;;;;;;8.70;5.70;;;1.70;99.90;;;;;;5049922;28;20486;-70
2021/12/01 01:38:58;;;;;;;10.57;6.43;;;1.90;99.90;;;;;;5049828;28;20457;-70
2021/12/01 01:41:27;;;;;;;8.07;5.60;;;2.00;99.90;;;;;;5049971;28;20922;-70
2021/12/01 01:43:54;;;;;;;10.10;6.73;;;2.00;99.90;;;;;;5049623;28;20512;-70
2021/12/01 01:46:22;;;;;;;8.47;5.77;;;2.00;99.90;;;;;;5050343;28;20468;-70
2021/12/01 01:48:52;;;;;;;9.93;5.70;;;1.80;99.90;;;;;;5049866;28;20451;-71
2021/12/01 01:51:23;;;;;;;9.83;5.10;;;1.80;99.90;;;;;;5049462;28;20472;-72
2021/12/01 01:53:54;;;;;;;10.97;5.80;;;1.80;99.90;;;;;;5039063;28;20830;-71
2021/12/01 01:56:22;;;;;;;9.40;5.67;;;1.70;99.90;;;;;;5049477;28;20485;-71
2021/12/01 01:58:50;;;;;;;9.20;5.27;;;1.70;99.90;;;;;;5049601;28;20460;-70
2021/12/01 02:01:32;;;;;;;8.10;5.07;;;1.60;99.90;;;;;;5049145;28;20935;-70
2021/12/01 02:04:00;;;;;;;10.03;5.60;;;1.50;99.90;;;;;;5049038;28;20454;-70
2021/12/01 02:06:27;;;;;;;13.27;6.00;;;1.60;99.90;;;;;;5049420;28;20484;-70
2021/12/01 02:08:57;;;;;;;6.17;5.07;;;1.80;99.90;;;;;;5049993;28;20450;-71
2021/12/01 02:11:26;;;;;;;9.67;6.40;;;1.60;99.90;;;;;;5049444;28;20494;-70
2021/12/01 02:13:55;;;;;;;8.63;5.40;;;1.80;99.90;;;;;;5049740;28;20514;-71
2021/12/01 02:16:23;;;;;;;8.47;5.53;;;1.80;99.90;;;;;;5049702;28;20491;-70
2021/12/01 02:18:52;;;;;;;12.20;6.00;;;2.00;99.90;;;;;;5049810;28;20518;-71
2021/12/01 02:21:26;;;;;;;9.87;5.50;;;2.10;99.90;;;;;;5049240;28;20494;-70
2021/12/01 02:23:55;;;;;;;8.93;5.27;;;2.20;99.90;;;;;;5049593;28;20461;-69
2021/12/01 02:26:23;;;;;;;10.13;5.63;;;3.20;99.90;;;;;;5048209;28;20470;-69
2021/12/01 02:28:52;;;;;;;8.83;5.23;;;2.40;99.90;;;;;;5049459;28;20536;-70
2021/12/01 02:31:21;;;;;;;8.17;6.00;;;2.30;99.90;;;;;;5049531;28;20453;-69
2021/12/01 02:33:49;;;;;;;6.77;4.40;;;2.50;99.90;;;;;;5049407;28;20543;-71
2021/12/01 02:36:16;;;;;;;10.47;5.23;;;2.40;99.90;;;;;;5047802;28;20523;-70
2021/12/01 02:38:47;;;;;;;7.40;4.73;;;2.40;99.90;;;;;;5049647;28;20457;-70
2021/12/01 02:41:14;;;;;;;8.50;5.23;;;2.50;99.90;;;;;;5049214;28;20465;-70
2021/12/01 02:43:43;;;;;;;8.33;5.03;;;2.60;99.90;;;;;;5048758;28;20508;-70
2021/12/01 02:46:13;;;;;;;8.60;5.27;;;2.60;99.90;;;;;;5048859;28;20485;-71
2021/12/01 02:48:42;;;;;;;8.07;5.23;;;2.60;99.90;;;;;;5049017;28;20458;-69
2021/12/01 02:51:11;;;;;;;8.57;4.90;;;2.50;99.90;;;;;;5048848;28;20449;-71
2021/12/01 02:53:38;;;;;;;6.70;4.80;;;2.30;99.90;;;;;;5047647;28;20447;-70
2021/12/01 02:56:08;;;;;;;8.90;5.17;;;2.30;99.90;;;;;;5048920;28;20481;-70
2021/12/01 02:58:40;;;;;;;8.70;5.60;;;2.40;99.90;;;;;;5048293;28;20458;-70
2021/12/01 03:01:10;;;;;;;7.37;4.90;;;2.50;99.90;;;;;;5048713;28;20468;-69
2021/12/01 03:03:39;;;;;;;6.53;4.27;;;2.30;99.90;;;;;;5048575;28;20760;-70
2021/12/01 03:06:07;;;;;;;11.30;5.87;;;2.40;99.90;;;;;;5048711;28;20470;-69
2021/12/01 03:08:36;;;;;;;7.10;4.83;;;2.50;99.90;;;;;;5048570;28;20514;-70
2021/12/01 03:11:04;;;;;;;9.70;5.40;;;2.50;99.90;;;;;;5048210;28;20494;-71
2021/12/01 03:13:33;;;;;;;8.43;5.17;;;2.50;99.90;;;;;;5051206;28;20453;-70
2021/12/01 03:16:00;;;;;;;6.40;4.37;;;2.60;99.90;;;;;;5053187;28;20478;-70
2021/12/01 03:18:28;;;;;;;8.60;4.90;;;2.70;99.90;;;;;;5052680;28;21274;-70
2021/12/01 03:20:56;;;;;;;8.43;5.30;;;2.90;99.90;;;;;;5053011;28;20453;-71
2021/12/01 03:23:24;;;;;;;7.23;3.80;;;2.90;99.90;;;;;;5053175;28;20446;-70
2021/12/01 03:25:52;;;;;;;7.57;5.00;;;2.70;99.90;;;;;;5053166;28;20470;-70
2021/12/01 03:28:20;;;;;;;8.07;5.10;;;2.90;99.90;;;;;;5053478;28;20476;-70
2021/12/01 03:30:49;;;;;;;9.50;5.27;;;2.60;99.90;;;;;;5053049;28;20858;-71
2021/12/01 03:33:18;;;;;;;8.20;5.13;;;2.60;99.90;;;;;;5052336;28;20450;-70
2021/12/01 03:35:48;;;;;;;7.07;5.10;;;2.70;99.90;;;;;;5052333;28;20500;-71
2021/12/01 03:38:15;;;;;;;10.57;5.77;;;2.70;99.90;;;;;;5052598;28;21306;-69
2021/12/01 03:40:43;;;;;;;9.30;5.10;;;2.70;99.90;;;;;;5060752;28;20451;-69
2021/12/01 03:43:11;;;;;;;7.10;4.70;;;2.50;99.90;;;;;;5056656;28;20454;-70
2021/12/01 03:45:39;;;;;;;7.90;5.07;;;2.60;99.90;;;;;;5052557;28;20545;-70
2021/12/01 03:48:08;;;;;;;6.90;5.30;;;2.40;99.90;;;;;;5052706;28;20453;-70
2021/12/01 03:50:36;;;;;;;8.30;4.50;;;2.50;99.90;;;;;;5052599;28;20450;-70
2021/12/01 03:53:03;;;;;;;8.63;6.17;;;2.50;99.90;;;;;;5052743;28;20513;-71
2021/12/01 03:55:30;;;;;;;8.87;5.73;;;2.50;99.90;;;;;;5052803;28;20527;-70
2021/12/01 03:57:57;;;;;;;8.63;5.30;;;2.40;99.90;;;;;;5052658;28;20520;-70
2021/12/01 04:00:24;;;;;;;7.50;4.80;;;2.50;99.90;;;;;;5052386;28;20453;-70
2021/12/01 04:02:51;;;;;;;7.90;5.37;;;2.60;99.90;;;;;;5052778;28;20465;-71
2021/12/01 04:05:23;;;;;;;9.00;5.47;;;2.60;99.90;;;;;;5052457;28;20602;-70
2021/12/01 04:07:50;;;;;;;7.27;4.23;;;2.60;99.90;;;;;;5052553;28;20445;-70
2021/12/01 04:10:18;;;;;;;8.97;5.40;;;2.60;99.90;;;;;;5052110;28;20469;-71
2021/12/01 04:12:46;;;;;;;8.57;5.07;;;2.60;99.90;;;;;;5051667;28;20986;-70
2021/12/01 04:15:15;;;;;;;7.37;4.30;;;2.50;99.90;;;;;;5052168;28;20484;-70
2021/12/01 04:17:43;;;;;;;9.20;4.70;;;2.60;99.90;;;;;;5051581;28;20480;-68
2021/12/01 04:20:13;;;;;;;6.03;4.00;;;2.60;99.90;;;;;;5051707;28;20492;-70
2021/12/01 04:22:41;;;;;;;8.40;4.60;;;2.50;99.90;;;;;;5051994;28;20931;-70
2021/12/01 04:25:10;;;;;;;6.30;4.90;;;2.50;99.90;;;;;;5051488;28;20475;-70
2021/12/01 04:27:37;;;;;;;6.73;4.40;;;2.60;99.90;;;;;;5050849;28;20449;-70
2021/12/01 04:30:07;;;;;;;8.27;4.50;;;2.80;99.90;;;;;;5049665;28;20592;-71
2021/12/01 04:32:34;;;;;;;8.30;4.50;;;2.70;99.90;;;;;;5046852;28;20554;-70
2021/12/01 04:35:01;;;;;;;6.60;4.00;;;2.70;99.90;;;;;;5051467;28;20474;-70
2021/12/01 04:37:28;;;;;;;6.27;4.43;;;2.70;99.90;;;;;;5051428;28;20483;-71
2021/12/01 04:39:58;;;;;;;7.27;5.13;;;2.80;99.90;;;;;;5051636;28;20461;-70
2021/12/01 04:42:25;;;;;;;6.30;4.33;;;2.80;99.90;;;;;;5050630;28;20468;-70
2021/12/01 04:44:52;;;;;;;7.83;4.47;;;2.90;99.90;;;;;;5051302;28;20550;-71
2021/12/01 04:47:26;;;;;;;7.23;4.73;;;2.60;99.90;;;;;;5051165;28;20454;-71
2021/12/01 04:49:53;;;;;;;6.73;4.00;;;2.80;99.90;;;;;;5050851;28;20464;-71
2021/12/01 04:52:20;;;;;;;8.23;4.80;;;2.70;99.90;;;;;;5050711;28;20516;-70
2021/12/01 04:54:47;;;;;;;7.77;4.57;;;2.80;99.90;;;;;;5051213;28;21036;-70
2021/12/01 04:57:16;;;;;;;7.10;4.57;;;3.00;99.90;;;;;;5050373;28;20487;-70
2021/12/01 04:59:44;;;;;;;7.33;4.10;;;3.10;99.90;;;;;;5051517;28;20453;-70
2021/12/01 05:02:11;;;;;;;8.27;4.70;;;3.10;99.90;;;;;;5050013;28;20525;-70
2021/12/01 05:04:41;;;;;;;9.33;6.10;;;3.20;99.90;;;;;;5051022;28;20476;-70
2021/12/01 05:07:08;;;;;;;8.37;4.93;;;3.10;99.90;;;;;;5051216;28;20458;-69
2021/12/01 05:09:35;;;;;;;12.30;5.60;;;3.20;99.90;;;;;;5050945;28;20920;-70
2021/12/01 05:12:02;;;;;;;10.17;6.37;;;3.20;99.90;;;;;;5050947;28;20573;-70
2021/12/01 05:14:31;;;;;;;8.30;5.60;;;3.20;99.90;;;;;;5050748;28;20511;-71
2021/12/01 05:16:58;;;;;;;8.03;4.70;;;3.00;99.90;;;;;;5050611;28;20462;-71
2021/12/01 05:19:25;;;;;;;8.93;5.20;;;3.00;99.90;;;;;;5050803;28;20462;-69
2021/12/01 05:21:52;;;;;;;7.50;4.60;;;3.10;99.90;;;;;;5050797;28;20456;-69
2021/12/01 05:24:19;;;;;;;11.33;6.10;;;3.20;99.90;;;;;;5050916;28;20462;-72
2021/12/01 05:26:46;;;;;;;9.20;5.70;;;3.20;99.90;;;;;;5050790;28;20553;-75
2021/12/01 05:29:13;;;;;;;11.20;5.90;;;3.30;99.90;;;;;;5051109;28;20447;-76
2021/12/01 05:31:46;;;;;;;8.63;5.93;;;3.20;99.90;;;;;;5050617;28;20961;-73
2021/12/01 05:34:13;;;;;;;8.30;5.40;;;3.20;99.90;;;;;;5050549;28;20486;-71
2021/12/01 05:36:40;;;;;;;9.10;5.50;;;3.20;99.90;;;;;;5049897;28;20458;-72
2021/12/01 05:39:07;;;;;;;11.73;6.87;;;2.80;99.90;;;;;;5050201;28;20990;-79
2021/12/01 05:41:34;;;;;;;9.67;6.17;;;2.70;99.90;;;;;;5050196;28;20467;-76
2021/12/01 05:44:01;;;;;;;10.03;6.63;;;2.70;99.90;;;;;;5050866;28;20511;-76
2021/12/01 05:46:28;;;;;;;8.20;5.87;;;2.90;99.90;;;;;;5050699;28;20482;-78
2021/12/01 05:48:56;;;;;;;10.67;6.57;;;3.00;99.90;;;;;;5050143;28;20984;-72
2021/12/01 05:51:24;;;;;;;9.80;6.50;;;2.90;99.90;;;;;;5050399;28;20484;-72
2021/12/01 05:53:51;;;;;;;9.77;6.70;;;2.90;99.90;;;;;;5050455;28;20461;-76
2021/12/01 05:56:18;;;;;;;13.27;5.83;;;3.10;99.90;;;;;;5050414;28;20474;-74
2021/12/01 05:58:45;;;;;;;11.50;6.43;;;3.10;99.90;;;;;;5050416;28;20494;-73
2021/12/01 06:01:12;;;;;;;8.17;5.60;;;3.00;99.90;;;;;;5049676;28;20452;-70
2021/12/01 06:03:40;;;;;;;12.20;6.40;;;3.00;99.90;;;;;;5050280;28;20482;-73
2021/12/01 06:06:08;;;;;;;10.27;6.10;;;3.00;99.90;;;;;;5050313;28;21067;-73
2021/12/01 06:08:35;;;;;;;11.00;5.93;;;3.00;99.90;;;;;;5050243;28;20457;-77
2021/12/01 06:11:05;;;;;;;7.83;5.50;;;2.90;99.90;;;;;;5049938;28;20492;-70
2021/12/01 06:13:32;;;;;;;10.37;5.93;;;2.70;99.90;;;;;;5049904;28;20950;-67
2021/12/01 06:15:59;;;;;;;9.00;5.30;;;2.90;99.90;;;;;;5049799;28;20531;-68
2021/12/01 06:18:29;;;;;;;10.00;5.57;;;2.90;99.90;;;;;;5049602;28;20491;-67
2021/12/01 06:20:57;;;;;;;12.27;5.47;;;3.00;99.90;;;;;;5049708;28;20458;-75
2021/12/01 06:23:26;;;;;;;9.50;6.07;;;2.90;99.90;;;;;;5049724;28;20457;-72
2021/12/01 06:25:53;;;;;;;14.03;6.60;;;2.70;99.90;;;;;;5049492;28;20526;-72
2021/12/01 06:28:20;;;;;;;12.90;7.27;;;2.70;99.90;;;;;;5049836;28;20522;-67
2021/12/01 06:30:47;;;;;;;12.67;7.40;;;2.70;99.90;;;;;;5049569;28;20457;-73
2021/12/01 06:33:14;;;;;;;9.67;6.53;;;2.70;99.90;;;;;;5049635;28;20537;-73
2021/12/01 06:35:47;;;;;;;12.93;7.07;;;2.70;99.90;;;;;;5049789;28;20956;-68
2021/12/01 06:38:14;;;;;;;9.63;6.20;;;2.70;99.90;;;;;;5049730;28;20498;-72
2021/12/01 06:40:42;;;;;;;11.67;7.17;;;3.00;99.90;;;;;;5049672;28;20455;-72
2021/12/01 06:43:09;;;;;;;11.23;6.80;;;3.00;99.90;;;;;;5049503;28;20449;-70
2021/12/01 06:45:37;;;;;;;13.53;7.70;;;3.10;99.90;;;;;;5049418;28;20472;-70
2021/12/01 06:48:04;;;;;;;8.40;6.63;;;3.00;99.90;;;;;;5049213;28;20448;-72
2021/12/01 06:50:31;;;;;;;10.80;6.53;;;3.10;99.90;;;;;;5048916;28;20508;-70
2021/12/01 06:52:58;;;;;;;9.87;7.10;;;3.10;99.90;;;;;;5048760;28;20452;-71
2021/12/01 06:55:25;;;;;;;12.20;8.53;;;3.10;99.90;;;;;;5048587;28;20542;-71
2021/12/01 06:57:53;;;;;;;12.77;7.70;;;3.10;99.90;;;;;;5048844;28;21074;-69
2021/12/01 07:00:21;;;;;;;12.60;8.07;;;2.90;99.90;;;;;;5049238;28;20940;-69
2021/12/01 07:02:49;;;;;;;15.07;9.70;;;3.20;99.90;;;;;;5048080;28;20888;-69
2021/12/01 07:05:16;;;;;;;17.53;10.33;;;3.20;99.90;;;;;;5048831;28;20477;-69
2021/12/01 07:07:43;;;;;;;13.40;9.77;;;3.20;99.90;;;;;;5049627;28;20455;-75
2021/12/01 07:10:13;;;;;;;15.20;8.90;;;3.20;99.90;;;;;;5049073;28;20461;-73
2021/12/01 07:12:42;;;;;;;14.90;9.40;;;3.40;99.90;;;;;;5048665;28;20496;-73
2021/12/01 07:15:12;;;;;;;13.33;8.27;;;3.50;99.90;;;;;;5049179;28;20473;-72
2021/12/01 07:17:39;;;;;;;12.73;8.80;;;3.80;99.90;;;;;;5049056;28;21291;-72
2021/12/01 07:20:08;;;;;;;14.43;8.10;;;4.00;99.90;;;;;;5049343;28;20457;-73
2021/12/01 07:22:35;;;;;;;12.33;7.63;;;4.20;99.90;;;;;;5048945;28;20476;-69
2021/12/01 07:25:02;;;;;;;12.17;7.87;;;4.40;99.90;;;;;;5048688;28;20859;-73
2021/12/01 07:27:29;;;;;;;11.50;6.97;;;4.50;99.90;;;;;;5049031;28;20456;-70
2021/12/01 07:29:56;;;;;;;10.00;6.13;;;4.50;99.90;;;;;;5049234;28;20477;-74
2021/12/01 07:32:24;;;;;;;10.63;6.70;;;4.50;99.90;;;;;;5048946;28;20938;-69
2021/12/01 07:34:51;;;;;;;9.37;6.40;;;4.30;99.90;;;;;;5048669;28;20476;-68
2021/12/01 07:37:19;;;;;;;9.03;6.10;;;4.30;99.90;;;;;;5049246;28;20846;-68
2021/12/01 07:39:47;;;;;;;8.37;5.47;;;4.50;99.90;;;;;;5048680;28;20493;-68
2021/12/01 07:42:15;;;;;;;9.43;5.83;;;4.90;99.90;;;;;;5049111;28;20461;-69
2021/12/01 07:44:43;;;;;;;9.63;5.73;;;4.90;99.90;;;;;;5048758;28;20474;-71
2021/12/01 07:47:11;;;;;;;9.20;6.17;;;4.90;99.90;;;;;;5048828;28;20449;-73
2021/12/01 07:49:40;;;;;;;11.77;6.37;;;5.30;99.90;;;;;;5048412;28;20543;-76
2021/12/01 07:52:07;;;;;;;10.60;6.47;;;5.40;99.90;;;;;;5048782;28;20446;-71
2021/12/01 07:54:35;;;;;;;9.80;6.23;;;5.30;99.90;;;;;;5048317;28;20535;-72
2021/12/01 07:57:03;;;;;;;10.30;6.53;;;5.50;99.90;;;;;;5047533;28;20457;-72
2021/12/01 07:59:31;;;;;;;11.63;6.77;;;5.50;99.90;;;;;;5050547;28;20563;-72
2021/12/01 08:01:58;;;;;;;10.87;7.50;;;5.70;99.90;;;;;;5052278;28;20454;-72
2021/12/01 08:04:25;;;;;;;13.77;8.40;;;5.80;99.90;;;;;;5052771;28;20485;-73
2021/12/01 08:06:55;;;;;;;12.50;8.30;;;6.00;99.90;;;;;;5052380;28;21033;-74
2021/12/01 08:09:22;;;;;;;12.67;8.43;;;6.00;99.90;;;;;;5052514;28;20450;-75
2021/12/01 08:11:49;;;;;;;13.40;9.70;;;6.00;99.90;;;;;;5052371;28;20512;-73
2021/12/01 08:14:16;;;;;;;14.73;8.33;;;6.20;99.90;;;;;;5052091;28;21067;-70
2021/12/01 08:16:43;;;;;;;16.17;9.70;;;6.30;99.90;;;;;;5051477;28;20457;-73
2021/12/01 08:19:11;;;;;;;13.87;8.30;;;6.40;99.90;;;;;;5051993;28;20508;-71
2021/12/01 08:21:38;;;;;;;11.47;8.00;;;6.60;99.90;;;;;;5052228;28;20527;-73
2021/12/01 08:24:08;;;;;;;12.70;8.23;;;6.60;99.90;;;;;;5051910;28;20789;-73
2021/12/01 08:26:35;;;;;;;9.60;7.40;;;6.70;99.90;;;;;;5052249;28;20943;-73
2021/12/01 08:29:02;;;;;;;13.83;6.60;;;6.70;99.90;;;;;;5051715;28;20818;-75
2021/12/01 08:31:29;;;;;;;10.97;6.60;;;6.80;99.90;;;;;;5051675;28;21225;-71
2021/12/01 08:33:56;;;;;;;11.67;6.77;;;6.80;99.90;;;;;;5051618;28;20460;-74
2021/12/01 08:36:23;;;;;;;15.53;7.67;;;6.90;99.90;;;;;;5051479;28;21234;-72
2021/12/01 08:38:50;;;;;;;12.00;8.20;;;7.10;99.90;;;;;;5051398;28;21145;-70
2021/12/01 08:41:19;;;;;;;11.93;7.30;;;7.40;99.90;;;;;;5051201;28;20458;-74
2021/12/01 08:43:46;;;;;;;14.07;8.27;;;7.80;99.90;;;;;;5051186;28;20458;-73
2021/12/01 08:46:13;;;;;;;9.73;6.70;;;8.00;99.90;;;;;;5051321;28;20476;-71
2021/12/01 08:48:40;;;;;;;10.87;7.03;;;8.20;99.90;;;;;;5051673;28;20452;-73
2021/12/01 08:51:08;;;;;;;10.30;6.43;;;8.50;99.90;;;;;;5051706;28;20490;-74
2021/12/01 08:53:39;;;;;;;13.43;6.93;;;8.90;99.90;;;;;;5051580;28;20460;-71
2021/12/01 08:56:07;;;;;;;10.00;6.40;;;9.10;99.90;;;;;;5050183;28;20480;-71
2021/12/01 08:58:35;;;;;;;9.90;6.60;;;9.30;99.90;;;;;;5051089;28;20546;-73
2021/12/01 09:01:04;;;;;;;11.17;7.00;;;9.50;99.90;;;;;;5051043;28;20485;-72
2021/12/01 09:03:31;;;;;;;9.93;6.90;;;9.60;99.90;;;;;;5051428;28;20449;-71
2021/12/01 09:05:58;;;;;;;10.43;6.47;;;9.70;99.90;;;;;;5051614;28;20481;-71
2021/12/01 09:08:26;;;;;;;11.43;6.87;;;10.00;99.00;;;;;;5051188;28;20458;-71
2021/12/01 09:10:54;;;;;;;10.40;6.73;;;10.10;99.90;;;;;;5049361;28;20998;-73
2021/12/01 09:13:22;;;;;;;10.47;7.43;;;10.00;99.30;;;;;;5050841;28;20533;-73
2021/12/01 09:15:52;;;;;;;12.00;6.97;;;9.70;99.90;;;;;;5050556;28;20480;-73
2021/12/01 09:18:19;;;;;;;12.43;8.67;;;9.60;99.90;;;;;;5050940;28;20496;-71
2021/12/01 09:20:47;;;;;;;12.67;8.53;;;9.40;99.90;;;;;;5051063;28;20460;-72
2021/12/01 09:23:14;;;;;;;13.20;8.27;;;9.30;99.90;;;;;;5050839;28;20454;-73
2021/12/01 09:25:41;;;;;;;15.13;8.10;;;9.40;99.90;;;;;;5050825;28;20521;-72
2021/12/01 09:28:08;;;;;;;14.70;7.33;;;9.70;98.90;;;;;;5050939;28;20540;-74
2021/12/01 09:30:35;;;;;;;13.00;8.50;;;9.90;99.90;;;;;;5050509;28;20446;-72
2021/12/01 09:33:04;;;;;;;12.70;9.13;;;10.20;98.50;;;;;;5051034;28;20449;-73
2021/12/01 09:35:31;;;;;;;14.60;9.20;;;10.50;97.90;;;;;;5050791;28;20875;-74
2021/12/01 09:37:58;;;;;;;13.13;8.47;;;10.80;97.80;;;;;;5050110;28;20454;-72
2021/12/01 09:40:25;;;;;;;11.37;7.90;;;10.90;97.80;;;;;;5050248;28;20502;-71
2021/12/01 09:42:54;;;;;;;13.03;8.40;;;11.00;96.50;;;;;;5050221;28;20454;-71
2021/12/01 09:45:23;;;;;;;11.93;8.97;;;11.20;96.60;;;;;;5050281;28;20564;-73
2021/12/01 09:47:52;;;;;;;13.53;8.47;;;11.00;96.40;;;;;;5049862;28;20453;-72
2021/12/01 09:50:21;;;;;;;12.40;8.50;;;10.90;96.40;;;;;;5050318;28;20457;-73
2021/12/01 09:52:48;;;;;;;15.40;7.67;;;11.20;96.10;;;;;;5049977;28;20457;-71
2021/12/01 09:55:17;;;;;;;17.80;9.67;;;11.40;96.80;;;;;;5049931;28;20478;-71
2021/12/01 09:57:59;;;;;;;11.50;8.17;;;11.50;97.20;;;;;;5050008;28;20457;-72
2021/12/01 10:00:27;;;;;;;15.17;9.90;;;11.70;95.90;;;;;;5049936;28;20550;-71
2021/12/01 10:02:54;;;;;;;11.07;7.60;;;12.00;95.20;;;;;;5050271;28;20450;-72
2021/12/01 10:05:52;;;;;;;12.90;8.83;;;12.00;94.10;;;;;;5050182;28;20469;-72
2021/12/01 10:08:21;;;;;;;12.57;9.10;;;12.00;96.00;;;;;;5050069;28;20830;-70
2021/12/01 10:10:48;;;;;;;11.83;8.73;;;12.10;94.80;;;;;;5049621;28;20492;-73
2021/12/01 10:13:16;;;;;;;15.90;9.70;;;12.20;95.50;;;;;;5049813;28;21256;-71
2021/12/01 10:15:44;;;;;;;11.90;7.83;;;12.20;97.40;;;;;;5049367;28;20547;-72
2021/12/01 10:18:13;;;;;;;14.10;7.40;;;12.20;97.20;;;;;;5049611;28;21208;-74
2021/12/01 10:20:40;;;;;;;13.17;8.93;;;12.30;97.50;;;;;;5049241;28;20555;-71
2021/12/01 10:23:11;;;;;;;12.10;8.30;;;12.50;97.80;;;;;;5049402;28;20515;-73
2021/12/01 10:25:39;;;;;;;12.27;7.77;;;12.90;95.80;;;;;;5049589;28;21040;-71
2021/12/01 10:28:06;;;;;;;10.97;7.10;;;13.10;96.50;;;;;;5048961;28;20460;-70
2021/12/01 10:30:39;;;;;;;13.53;7.67;;;13.20;96.20;;;;;;5049242;28;20453;-74
2021/12/01 10:33:10;;;;;;;11.70;7.00;;;13.50;98.10;;;;;;5049279;28;20650;-71
2021/12/01 10:35:38;;;;;;;10.10;6.30;;;13.80;96.70;;;;;;5049266;28;20888;-73
2021/12/01 10:38:07;;;;;;;13.20;6.90;;;14.10;95.40;;;;;;5049523;28;20446;-73
2021/12/01 10:40:37;;;;;;;9.30;6.50;;;14.30;95.30;;;;;;5049210;28;20604;-71
2021/12/01 10:43:06;;;;;;;11.37;8.57;;;14.30;92.90;;;;;;5049505;28;20457;-73
2021/12/01 10:45:35;;;;;;;13.20;8.83;;;14.40;92.10;;;;;;5049404;28;20523;-74
2021/12/01 10:48:04;;;;;;;15.83;8.57;;;14.40;91.40;;;;;;5049299;28;20764;-72
2021/12/01 10:50:34;;;;;;;11.77;9.10;;;14.20;90.40;;;;;;5049299;28;20461;-73
2021/12/01 10:53:06;;;;;;;14.60;8.73;;;14.20;90.20;;;;;;5049121;28;20464;-73
2021/12/01 10:55:41;;;;;;;14.23;9.60;;;14.10;91.70;;;;;;5049323;28;20546;-73
2021/12/01 10:58:08;;;;;;;15.27;10.27;;;14.00;89.70;;;;;;5048979;28;20938;-73
2021/12/01 11:00:41;;;;;;;15.27;10.40;;;14.10;88.70;;;;;;5049190;28;20507;-73
2021/12/01 11:03:10;;;;;;;14.87;8.77;;;14.10;89.30;;;;;;5049101;28;20534;-70
2021/12/01 11:05:39;;;;;;;16.63;9.90;;;14.30;91.90;;;;;;5048943;28;20484;-74
2021/12/01 11:08:15;;;;;;;12.70;8.70;;;14.50;91.00;;;;;;5049241;28;20586;-72
2021/12/01 11:10:46;;;;;;;14.50;8.83;;;14.70;90.90;;;;;;5048824;28;20458;-71
2021/12/01 11:13:14;;;;;;;14.33;10.20;;;14.90;91.30;;;;;;5048839;28;20445;-72
2021/12/01 11:15:43;;;;;;;15.07;9.00;;;15.20;91.10;;;;;;5049041;28;20488;-71
2021/12/01 11:18:18;;;;;;;10.53;8.47;;;15.40;82.80;;;;;;5048834;28;20462;-70
2021/12/01 11:20:46;;;;;;;12.87;8.17;;;15.50;85.80;;;;;;5048430;28;20539;-73
2021/12/01 11:23:23;;;;;;;13.60;8.80;;;15.60;84.70;;;;;;5048540;28;20492;-73
2021/12/01 11:25:53;;;;;;;11.10;7.40;;;15.70;89.50;;;;;;5048812;28;20549;-71
2021/12/01 11:28:22;;;;;;;13.17;9.00;;;15.90;84.30;;;;;;5048976;28;20520;-73
2021/12/01 11:30:51;;;;;;;13.20;9.03;;;15.90;83.40;;;;;;5048834;28;20450;-69
2021/12/01 11:33:20;;;;;;;17.00;10.50;;;15.90;85.00;;;;;;5049457;28;20476;-73
2021/12/01 11:35:50;;;;;;;15.53;9.43;;;16.00;82.90;;;;;;5052305;28;20480;-74
2021/12/01 11:38:19;;;;;;;12.33;8.17;;;16.30;84.80;;;;;;5048901;28;20449;-73
2021/12/01 11:40:46;;;;;;;9.23;7.07;;;16.60;84.20;;;;;;5052282;28;20517;-73
2021/12/01 11:43:16;;;;;;;13.13;8.50;;;16.70;81.60;;;;;;5052594;28;20461;-71
2021/12/01 11:45:45;;;;;;;19.13;8.37;;;16.60;82.90;;;;;;5052120;28;20527;-74
2021/12/01 11:48:14;;;;;;;14.37;9.27;;;16.50;82.00;;;;;;5052680;28;20457;-75
2021/12/01 11:50:47;;;;;;;12.50;7.10;;;16.60;79.10;;;;;;5051582;28;20449;-75
2021/12/01 11:53:21;;;;;;;11.40;7.50;;;16.60;80.60;;;;;;5052018;28;20456;-74
2021/12/01 11:55:59;;;;;;;10.80;5.97;;;16.40;80.80;;;;;;5053243;28;20880;-74
2021/12/01 11:59:19;;;;;;;11.70;7.97;;;16.70;81.70;;;;;;5052708;28;20501;-74
2021/12/01 12:01:57;;;;;;;9.77;5.87;;;17.10;78.40;;;;;;5052241;28;20470;-74
2021/12/01 12:04:49;;;;;;;6.80;4.83;;;17.30;78.30;;;;;;5052268;28;20500;-74
2021/12/01 12:07:22;;;;;;;7.87;3.40;;;17.40;79.10;;;;;;5051706;28;20455;-76
2021/12/01 12:10:09;;;;;;;11.83;4.10;;;17.40;75.60;;;;;;5051698;28;20878;-75
2021/12/01 12:12:57;;;;;;;6.80;4.10;;;17.30;75.20;;;;;;5052064;28;20894;-73
2021/12/01 12:15:45;;;;;;;10.80;3.77;;;17.20;77.10;;;;;;5051994;28;21110;-73
2021/12/01 12:18:15;;;;;;;12.30;4.90;;;17.20;79.90;;;;;;5051760;28;20511;-73
2021/12/01 12:20:47;;;;;;;6.27;3.50;;;17.50;78.00;;;;;;5051472;28;20500;-76
2021/12/01 12:23:17;;;;;;;9.57;4.47;;;17.50;76.80;;;;;;5051920;28;20545;-75
2021/12/01 12:25:52;;;;;;;6.83;4.17;;;17.70;77.20;;;;;;5052073;28;20466;-75
2021/12/01 12:28:39;;;;;;;6.63;4.20;;;18.10;76.10;;;;;;5051625;28;20871;-76
2021/12/01 12:31:27;;;;;;;7.77;3.60;;;18.20;73.50;;;;;;5052161;28;20457;-74
2021/12/01 12:33:57;;;;;;;7.40;4.67;;;18.20;73.20;;;;;;5051753;28;21008;-74
2021/12/01 12:36:38;;;;;;;5.80;3.40;;;18.20;71.90;;;;;;5051536;28;20500;-75
2021/12/01 12:39:07;;;;;;;6.00;3.93;;;18.10;71.30;;;;;;5033754;28;20933;-75
2021/12/01 12:42:05;;;;;;;8.83;4.10;;;18.30;74.60;;;;;;5031503;28;20549;-75
2021/12/01 12:44:35;;;;;;;9.93;4.20;;;18.40;73.40;;;;;;5031306;28;20471;-76
2021/12/01 12:47:06;;;;;;;16.43;8.10;;;18.50;69.80;;;;;;5031856;28;20461;-69
2021/12/01 12:49:41;;;;;;;13.30;7.47;;;18.40;71.70;;;;;;5031584;28;20447;-67
2021/12/01 12:52:30;;;;;;;8.20;4.37;;;18.20;69.80;;;;;;5031140;28;20458;-70
2021/12/01 12:54:59;;;;;;;7.70;5.07;;;17.90;70.20;;;;;;5031168;28;20849;-69
2021/12/01 12:57:47;;;;;;;8.80;5.10;;;18.00;72.60;;;;;;5031644;28;20837;-69
2021/12/01 13:00:20;;;;;;;9.47;5.50;;;18.10;74.20;;;;;;5031409;28;20487;-71
2021/12/01 13:02:48;;;;;;;7.63;5.33;;;18.30;71.80;;;;;;5031307;28;20458;-69